sensor_id;sensor_type;location;lat;lon;timestamp;temperature;humidity
6291;DHT22;3178;48.730;8.990;2022-07-12T00:01:04;14.30;99.90
6291;DHT22;3178;48.730;8.990;2022-07-12T00:03:29;14.20;99.90
6291;DHT22;3178;48.730;8.990;2022-07-12T00:05:55;14.20;99.90
6291;DHT22;3178;48.730;8.990;2022-07-12T00:08:21;14.20;99.90
6291;DHT22;3178;48.730;8.990;2022-07-12T00:10:47;14.10;99.90
6291;DHT22;3178;48.730;8.990;2022-07-12T00:13:13;14.10;99.90
6291;DHT22;3178;48.730;8.990;2022-07-12T00:15:38;13.90;99.90
6291;DHT22;3178;48.730;8.990;2022-07-12T00:18:04;14.10;99.90
6291;DHT22;3178;48.730;8.990;2022-07-12T00:20:29;14.00;99.90
6291;DHT22;3178;48.730;8.990;2022-07-12T00:22:55;14.10;99.90
6291;DHT22;3178;48.730;8.990;2022-07-12T00:25:21;14.00;99.90
6291;DHT22;3178;48.730;8.990;2022-07-12T00:27:47;14.10;99.90
6291;DHT22;3178;48.730;8.990;2022-07-12T00:30:12;14.00;99.90
6291;DHT22;3178;48.730;8.990;2022-07-12T00:32:38;14.00;99.90
6291;DHT22;3178;48.730;8.990;2022-07-12T00:35:05;14.00;99.90
6291;DHT22;3178;48.730;8.990;2022-07-12T00:37:31;13.90;99.90
6291;DHT22;3178;48.730;8.990;2022-07-12T00:39:57;13.80;99.90
6291;DHT22;3178;48.730;8.990;2022-07-12T00:42:23;13.90;99.90
6291;DHT22;3178;48.730;8.990;2022-07-12T00:44:48;13.80;99.90
6291;DHT22;3178;48.730;8.990;2022-07-12T00:47:25;13.80;99.90
6291;DHT22;3178;48.730;8.990;2022-07-12T00:49:53;13.80;99.90
6291;DHT22;3178;48.730;8.990;2022-07-12T00:52:19;13.80;99.90
6291;DHT22;3178;48.730;8.990;2022-07-12T00:54:45;13.80;99.90
6291;DHT22;3178;48.730;8.990;2022-07-12T00:57:10;13.80;99.90
6291;DHT22;3178;48.730;8.990;2022-07-12T00:59:36;13.80;99.90
6291;DHT22;3178;48.730;8.990;2022-07-12T01:02:01;13.80;99.90
6291;DHT22;3178;48.730;8.990;2022-07-12T01:04:28;13.70;99.90
6291;DHT22;3178;48.730;8.990;2022-07-12T01:06:54;13.90;99.90
6291;DHT22;3178;48.730;8.990;2022-07-12T01:09:20;13.70;99.90
6291;DHT22;3178;48.730;8.990;2022-07-12T01:11:45;13.70;99.90
6291;DHT22;3178;48.730;8.990;2022-07-12T01:14:11;13.70;99.90
6291;DHT22;3178;48.730;8.990;2022-07-12T01:16:39;13.50;99.90
6291;DHT22;3178;48.730;8.990;2022-07-12T01:19:06;13.50;99.90
6291;DHT22;3178;48.730;8.990;2022-07-12T01:21:34;13.60;99.90
6291;DHT22;3178;48.730;8.990;2022-07-12T01:24:02;13.70;99.90
6291;DHT22;3178;48.730;8.990;2022-07-12T01:26:29;13.50;99.90
6291;DHT22;3178;48.730;8.990;2022-07-12T01:28:55;13.70;99.90
6291;DHT22;3178;48.730;8.990;2022-07-12T01:31:21;13.50;99.90
6291;DHT22;3178;48.730;8.990;2022-07-12T01:33:46;13.50;99.90
6291;DHT22;3178;48.730;8.990;2022-07-12T01:36:12;13.50;99.90
6291;DHT22;3178;48.730;8.990;2022-07-12T01:38:38;13.40;99.90
6291;DHT22;3178;48.730;8.990;2022-07-12T01:41:04;13.40;99.90
6291;DHT22;3178;48.730;8.990;2022-07-12T01:43:30;13.40;99.90
6291;DHT22;3178;48.730;8.990;2022-07-12T01:45:55;13.50;99.90
6291;DHT22;3178;48.730;8.990;2022-07-12T01:48:21;13.40;99.90
6291;DHT22;3178;48.730;8.990;2022-07-12T01:50:47;13.40;99.90
6291;DHT22;3178;48.730;8.990;2022-07-12T01:53:13;13.40;99.90
6291;DHT22;3178;48.730;8.990;2022-07-12T01:55:39;13.40;99.90
6291;DHT22;3178;48.730;8.990;2022-07-12T01:58:06;13.40;99.90
6291;DHT22;3178;48.730;8.990;2022-07-12T02:00:32;13.40;99.90
6291;DHT22;3178;48.730;8.990;2022-07-12T02:02:57;13.40;99.90
6291;DHT22;3178;48.730;8.990;2022-07-12T02:05:23;13.40;99.90
6291;DHT22;3178;48.730;8.990;2022-07-12T02:07:49;13.40;99.90
6291;DHT22;3178;48.730;8.990;2022-07-12T02:10:15;13.40;99.90
6291;DHT22;3178;48.730;8.990;2022-07-12T02:12:40;13.40;99.90
6291;DHT22;3178;48.730;8.990;2022-07-12T02:15:07;13.30;99.90
6291;DHT22;3178;48.730;8.990;2022-07-12T02:17:33;13.30;99.90
6291;DHT22;3178;48.730;8.990;2022-07-12T02:19:59;13.30;99.90
6291;DHT22;3178;48.730;8.990;2022-07-12T02:22:24;13.20;99.90
6291;DHT22;3178;48.730;8.990;2022-07-12T02:24:50;13.40;99.90
6291;DHT22;3178;48.730;8.990;2022-07-12T02:27:16;13.30;99.90
6291;DHT22;3178;48.730;8.990;2022-07-12T02:29:42;13.20;99.90
6291;DHT22;3178;48.730;8.990;2022-07-12T02:32:07;13.20;99.90
6291;DHT22;3178;48.730;8.990;2022-07-12T02:34:33;13.20;99.90
6291;DHT22;3178;48.730;8.990;2022-07-12T02:36:59;13.20;99.90
6291;DHT22;3178;48.730;8.990;2022-07-12T02:39:25;13.30;99.90
6291;DHT22;3178;48.730;8.990;2022-07-12T02:41:50;13.30;99.90
6291;DHT22;3178;48.730;8.990;2022-07-12T02:44:16;13.30;99.90
6291;DHT22;3178;48.730;8.990;2022-07-12T02:46:42;13.20;99.90
6291;DHT22;3178;48.730;8.990;2022-07-12T02:49:07;13.20;99.90
6291;DHT22;3178;48.730;8.990;2022-07-12T02:51:33;13.30;99.90
6291;DHT22;3178;48.730;8.990;2022-07-12T02:53:59;13.20;99.90
6291;DHT22;3178;48.730;8.990;2022-07-12T02:56:26;13.30;99.90
6291;DHT22;3178;48.730;8.990;2022-07-12T02:58:51;13.30;99.90
6291;DHT22;3178;48.730;8.990;2022-07-12T03:01:17;13.40;99.90
6291;DHT22;3178;48.730;8.990;2022-07-12T03:03:42;13.20;99.90
6291;DHT22;3178;48.730;8.990;2022-07-12T03:06:08;13.20;99.90
6291;DHT22;3178;48.730;8.990;2022-07-12T03:08:34;13.30;99.90
6291;DHT22;3178;48.730;8.990;2022-07-12T03:10:59;13.20;99.90
6291;DHT22;3178;48.730;8.990;2022-07-12T03:13:25;13.20;99.90
6291;DHT22;3178;48.730;8.990;2022-07-12T03:15:51;13.20;99.90
6291;DHT22;3178;48.730;8.990;2022-07-12T03:18:16;13.20;99.90
6291;DHT22;3178;48.730;8.990;2022-07-12T03:20:42;13.40;99.90
6291;DHT22;3178;48.730;8.990;2022-07-12T03:23:08;13.30;99.90
6291;DHT22;3178;48.730;8.990;2022-07-12T03:25:34;13.10;99.90
6291;DHT22;3178;48.730;8.990;2022-07-12T03:27:59;13.20;99.90
6291;DHT22;3178;48.730;8.990;2022-07-12T03:30:25;13.20;99.90
6291;DHT22;3178;48.730;8.990;2022-07-12T03:32:50;13.20;99.90
6291;DHT22;3178;48.730;8.990;2022-07-12T03:35:16;13.20;99.90
6291;DHT22;3178;48.730;8.990;2022-07-12T03:37:47;13.10;99.90
6291;DHT22;3178;48.730;8.990;2022-07-12T03:40:14;13.20;99.90
6291;DHT22;3178;48.730;8.990;2022-07-12T03:42:40;13.30;99.90
6291;DHT22;3178;48.730;8.990;2022-07-12T03:45:06;13.20;99.90
6291;DHT22;3178;48.730;8.990;2022-07-12T03:47:32;13.30;99.90
6291;DHT22;3178;48.730;8.990;2022-07-12T03:49:58;13.30;99.90
6291;DHT22;3178;48.730;8.990;2022-07-12T03:52:23;13.40;99.90
6291;DHT22;3178;48.730;8.990;2022-07-12T03:54:49;13.30;99.90
6291;DHT22;3178;48.730;8.990;2022-07-12T03:57:15;13.30;99.90
6291;DHT22;3178;48.730;8.990;2022-07-12T03:59:42;13.40;99.90
6291;DHT22;3178;48.730;8.990;2022-07-12T04:02:08;13.30;99.90
6291;DHT22;3178;48.730;8.990;2022-07-12T04:04:34;13.30;99.90
6291;DHT22;3178;48.730;8.990;2022-07-12T04:07:00;13.30;99.90
6291;DHT22;3178;48.730;8.990;2022-07-12T04:09:25;13.30;99.90
6291;DHT22;3178;48.730;8.990;2022-07-12T04:11:51;13.40;99.90
6291;DHT22;3178;48.730;8.990;2022-07-12T04:14:16;13.20;99.90
6291;DHT22;3178;48.730;8.990;2022-07-12T04:16:42;13.20;99.90
6291;DHT22;3178;48.730;8.990;2022-07-12T04:19:07;13.40;99.90
6291;DHT22;3178;48.730;8.990;2022-07-12T04:21:37;13.30;99.90
6291;DHT22;3178;48.730;8.990;2022-07-12T04:24:03;13.40;99.90
6291;DHT22;3178;48.730;8.990;2022-07-12T04:26:29;13.20;99.90
6291;DHT22;3178;48.730;8.990;2022-07-12T04:28:54;13.30;99.90
6291;DHT22;3178;48.730;8.990;2022-07-12T04:31:20;13.20;99.90
6291;DHT22;3178;48.730;8.990;2022-07-12T04:33:45;13.40;99.90
6291;DHT22;3178;48.730;8.990;2022-07-12T04:36:11;13.50;99.90
6291;DHT22;3178;48.730;8.990;2022-07-12T04:38:36;13.30;99.90
6291;DHT22;3178;48.730;8.990;2022-07-12T04:41:02;13.30;99.90
6291;DHT22;3178;48.730;8.990;2022-07-12T04:43:27;13.30;99.90
6291;DHT22;3178;48.730;8.990;2022-07-12T04:45:53;13.30;99.90
6291;DHT22;3178;48.730;8.990;2022-07-12T04:48:19;13.40;99.90
6291;DHT22;3178;48.730;8.990;2022-07-12T04:50:44;13.30;99.90
6291;DHT22;3178;48.730;8.990;2022-07-12T04:53:10;13.40;99.90
6291;DHT22;3178;48.730;8.990;2022-07-12T04:55:36;13.30;99.90
6291;DHT22;3178;48.730;8.990;2022-07-12T04:58:02;13.50;99.90
6291;DHT22;3178;48.730;8.990;2022-07-12T05:00:28;13.50;99.90
6291;DHT22;3178;48.730;8.990;2022-07-12T05:02:53;13.60;99.90
6291;DHT22;3178;48.730;8.990;2022-07-12T05:05:19;13.80;99.90
6291;DHT22;3178;48.730;8.990;2022-07-12T05:07:45;13.60;99.90
6291;DHT22;3178;48.730;8.990;2022-07-12T05:10:10;13.70;99.90
6291;DHT22;3178;48.730;8.990;2022-07-12T05:12:36;13.80;99.90
6291;DHT22;3178;48.730;8.990;2022-07-12T05:15:02;13.90;99.90
6291;DHT22;3178;48.730;8.990;2022-07-12T05:17:28;14.00;99.90
6291;DHT22;3178;48.730;8.990;2022-07-12T05:19:53;14.00;99.90
6291;DHT22;3178;48.730;8.990;2022-07-12T05:22:19;14.10;99.90
6291;DHT22;3178;48.730;8.990;2022-07-12T05:24:44;14.40;99.90
6291;DHT22;3178;48.730;8.990;2022-07-12T05:27:10;14.40;99.90
6291;DHT22;3178;48.730;8.990;2022-07-12T05:29:36;14.30;99.90
6291;DHT22;3178;48.730;8.990;2022-07-12T05:32:01;14.50;99.90
6291;DHT22;3178;48.730;8.990;2022-07-12T05:34:27;14.60;99.90
6291;DHT22;3178;48.730;8.990;2022-07-12T05:36:53;14.70;99.90
6291;DHT22;3178;48.730;8.990;2022-07-12T05:39:19;14.70;99.90
6291;DHT22;3178;48.730;8.990;2022-07-12T05:41:44;14.90;99.90
6291;DHT22;3178;48.730;8.990;2022-07-12T05:44:12;15.00;99.90
6291;DHT22;3178;48.730;8.990;2022-07-12T05:46:37;15.20;99.90
6291;DHT22;3178;48.730;8.990;2022-07-12T05:49:04;15.40;99.90
6291;DHT22;3178;48.730;8.990;2022-07-12T05:51:30;15.40;99.90
6291;DHT22;3178;48.730;8.990;2022-07-12T05:54:14;15.60;99.90
6291;DHT22;3178;48.730;8.990;2022-07-12T05:56:39;15.80;99.90
6291;DHT22;3178;48.730;8.990;2022-07-12T05:59:05;16.00;99.90
6291;DHT22;3178;48.730;8.990;2022-07-12T06:01:30;16.30;99.90
6291;DHT22;3178;48.730;8.990;2022-07-12T06:03:56;16.30;99.90
6291;DHT22;3178;48.730;8.990;2022-07-12T06:06:22;16.50;99.90
6291;DHT22;3178;48.730;8.990;2022-07-12T06:08:47;16.70;99.90
6291;DHT22;3178;48.730;8.990;2022-07-12T06:11:13;17.00;99.90
6291;DHT22;3178;48.730;8.990;2022-07-12T06:13:38;17.00;99.90
6291;DHT22;3178;48.730;8.990;2022-07-12T06:16:04;17.20;99.90
6291;DHT22;3178;48.730;8.990;2022-07-12T06:18:31;17.40;99.90
6291;DHT22;3178;48.730;8.990;2022-07-12T06:20:59;17.50;99.90
6291;DHT22;3178;48.730;8.990;2022-07-12T06:23:25;17.70;99.90
6291;DHT22;3178;48.730;8.990;2022-07-12T06:25:50;17.90;99.90
6291;DHT22;3178;48.730;8.990;2022-07-12T06:28:16;18.10;99.90
6291;DHT22;3178;48.730;8.990;2022-07-12T06:30:41;18.30;99.90
6291;DHT22;3178;48.730;8.990;2022-07-12T06:33:07;18.40;99.90
6291;DHT22;3178;48.730;8.990;2022-07-12T06:35:33;18.40;99.90
6291;DHT22;3178;48.730;8.990;2022-07-12T06:37:59;18.60;99.90
6291;DHT22;3178;48.730;8.990;2022-07-12T06:40:25;18.80;99.90
6291;DHT22;3178;48.730;8.990;2022-07-12T06:42:50;18.80;99.90
6291;DHT22;3178;48.730;8.990;2022-07-12T06:45:16;18.80;99.90
6291;DHT22;3178;48.730;8.990;2022-07-12T06:47:42;19.10;99.90
6291;DHT22;3178;48.730;8.990;2022-07-12T06:50:07;19.10;99.90
6291;DHT22;3178;48.730;8.990;2022-07-12T06:52:33;19.20;99.90
6291;DHT22;3178;48.730;8.990;2022-07-12T06:55:00;19.50;99.90
6291;DHT22;3178;48.730;8.990;2022-07-12T06:57:25;19.50;99.90
6291;DHT22;3178;48.730;8.990;2022-07-12T06:59:56;19.60;99.90
6291;DHT22;3178;48.730;8.990;2022-07-12T07:02:21;19.60;99.90
6291;DHT22;3178;48.730;8.990;2022-07-12T07:04:47;19.70;99.90
6291;DHT22;3178;48.730;8.990;2022-07-12T07:07:13;19.90;99.90
6291;DHT22;3178;48.730;8.990;2022-07-12T07:09:38;20.00;99.90
6291;DHT22;3178;48.730;8.990;2022-07-12T07:12:04;20.10;99.90
6291;DHT22;3178;48.730;8.990;2022-07-12T07:14:30;20.20;99.90
6291;DHT22;3178;48.730;8.990;2022-07-12T07:16:56;20.30;99.90
6291;DHT22;3178;48.730;8.990;2022-07-12T07:19:22;20.40;99.90
6291;DHT22;3178;48.730;8.990;2022-07-12T07:21:52;20.50;99.90
6291;DHT22;3178;48.730;8.990;2022-07-12T07:24:19;20.70;99.90
6291;DHT22;3178;48.730;8.990;2022-07-12T07:26:44;20.80;99.90
6291;DHT22;3178;48.730;8.990;2022-07-12T07:29:10;21.00;99.90
6291;DHT22;3178;48.730;8.990;2022-07-12T07:31:54;21.10;99.90
6291;DHT22;3178;48.730;8.990;2022-07-12T07:34:20;21.40;99.90
6291;DHT22;3178;48.730;8.990;2022-07-12T07:36:45;21.50;99.90
6291;DHT22;3178;48.730;8.990;2022-07-12T07:39:11;21.60;99.90
6291;DHT22;3178;48.730;8.990;2022-07-12T07:41:37;21.80;99.90
6291;DHT22;3178;48.730;8.990;2022-07-12T07:44:03;22.00;99.90
6291;DHT22;3178;48.730;8.990;2022-07-12T07:46:28;22.10;99.90
6291;DHT22;3178;48.730;8.990;2022-07-12T07:48:54;22.30;99.90
6291;DHT22;3178;48.730;8.990;2022-07-12T07:51:19;22.40;99.90
6291;DHT22;3178;48.730;8.990;2022-07-12T07:53:45;22.40;99.90
6291;DHT22;3178;48.730;8.990;2022-07-12T07:56:11;22.30;99.90
6291;DHT22;3178;48.730;8.990;2022-07-12T07:58:36;22.30;99.90
6291;DHT22;3178;48.730;8.990;2022-07-12T08:01:02;22.30;99.90
6291;DHT22;3178;48.730;8.990;2022-07-12T08:03:27;22.30;99.90
6291;DHT22;3178;48.730;8.990;2022-07-12T08:05:53;22.20;99.90
6291;DHT22;3178;48.730;8.990;2022-07-12T08:08:22;22.20;99.90
6291;DHT22;3178;48.730;8.990;2022-07-12T08:10:50;22.40;99.90
6291;DHT22;3178;48.730;8.990;2022-07-12T08:13:16;22.70;99.90
6291;DHT22;3178;48.730;8.990;2022-07-12T08:15:41;23.00;99.90
6291;DHT22;3178;48.730;8.990;2022-07-12T08:18:07;23.10;99.90
6291;DHT22;3178;48.730;8.990;2022-07-12T08:20:33;23.30;99.90
6291;DHT22;3178;48.730;8.990;2022-07-12T08:22:58;23.50;99.90
6291;DHT22;3178;48.730;8.990;2022-07-12T08:25:24;23.70;99.90
6291;DHT22;3178;48.730;8.990;2022-07-12T08:27:50;23.80;99.90
6291;DHT22;3178;48.730;8.990;2022-07-12T08:30:16;24.10;99.90
6291;DHT22;3178;48.730;8.990;2022-07-12T08:32:45;24.40;99.90
6291;DHT22;3178;48.730;8.990;2022-07-12T08:35:11;24.70;99.90
6291;DHT22;3178;48.730;8.990;2022-07-12T08:37:37;25.00;99.90
6291;DHT22;3178;48.730;8.990;2022-07-12T08:40:03;25.20;99.90
6291;DHT22;3178;48.730;8.990;2022-07-12T08:42:30;25.40;99.90
6291;DHT22;3178;48.730;8.990;2022-07-12T08:44:56;25.60;99.90
6291;DHT22;3178;48.730;8.990;2022-07-12T08:47:23;25.60;99.90
6291;DHT22;3178;48.730;8.990;2022-07-12T08:52:39;25.50;99.90
6291;DHT22;3178;48.730;8.990;2022-07-12T08:57:49;25.10;99.90
6291;DHT22;3178;48.730;8.990;2022-07-12T09:00:15;25.20;99.90
6291;DHT22;3178;48.730;8.990;2022-07-12T09:02:57;25.40;99.90
6291;DHT22;3178;48.730;8.990;2022-07-12T09:05:25;25.60;99.90
6291;DHT22;3178;48.730;8.990;2022-07-12T09:07:52;25.70;99.90
6291;DHT22;3178;48.730;8.990;2022-07-12T09:10:26;25.70;99.90
6291;DHT22;3178;48.730;8.990;2022-07-12T09:12:52;25.40;99.90
6291;DHT22;3178;48.730;8.990;2022-07-12T09:15:21;25.40;99.90
6291;DHT22;3178;48.730;8.990;2022-07-12T09:18:01;25.40;99.90
6291;DHT22;3178;48.730;8.990;2022-07-12T09:20:35;25.50;99.90
6291;DHT22;3178;48.730;8.990;2022-07-12T09:23:09;25.70;99.90
6291;DHT22;3178;48.730;8.990;2022-07-12T09:25:36;25.70;99.90
6291;DHT22;3178;48.730;8.990;2022-07-12T09:28:07;25.80;99.90
6291;DHT22;3178;48.730;8.990;2022-07-12T09:30:35;25.70;99.70
6291;DHT22;3178;48.730;8.990;2022-07-12T09:33:04;25.70;99.90
6291;DHT22;3178;48.730;8.990;2022-07-12T09:38:33;25.90;99.90
6291;DHT22;3178;48.730;8.990;2022-07-12T09:41:00;25.60;99.90
6291;DHT22;3178;48.730;8.990;2022-07-12T09:43:26;25.30;98.60
6291;DHT22;3178;48.730;8.990;2022-07-12T09:45:52;25.10;98.70
6291;DHT22;3178;48.730;8.990;2022-07-12T09:48:19;25.10;98.40
6291;DHT22;3178;48.730;8.990;2022-07-12T09:50:48;25.20;99.90
6291;DHT22;3178;48.730;8.990;2022-07-12T09:53:20;25.30;99.90
6291;DHT22;3178;48.730;8.990;2022-07-12T09:55:49;25.60;99.90
6291;DHT22;3178;48.730;8.990;2022-07-12T09:58:21;25.90;99.90
6291;DHT22;3178;48.730;8.990;2022-07-12T10:00:50;26.10;99.90
6291;DHT22;3178;48.730;8.990;2022-07-12T10:03:21;26.20;99.50
6291;DHT22;3178;48.730;8.990;2022-07-12T10:05:54;26.30;98.00
6291;DHT22;3178;48.730;8.990;2022-07-12T10:08:20;26.10;99.30
6291;DHT22;3178;48.730;8.990;2022-07-12T10:10:47;26.20;99.90
6291;DHT22;3178;48.730;8.990;2022-07-12T10:13:14;26.30;99.20
6291;DHT22;3178;48.730;8.990;2022-07-12T10:15:40;26.50;96.90
6291;DHT22;3178;48.730;8.990;2022-07-12T10:18:15;26.50;96.30
6291;DHT22;3178;48.730;8.990;2022-07-12T10:20:42;26.50;97.80
6291;DHT22;3178;48.730;8.990;2022-07-12T10:23:27;26.40;99.00
6291;DHT22;3178;48.730;8.990;2022-07-12T10:25:54;26.50;98.50
6291;DHT22;3178;48.730;8.990;2022-07-12T10:28:20;26.50;98.90
6291;DHT22;3178;48.730;8.990;2022-07-12T10:30:49;26.50;96.40
6291;DHT22;3178;48.730;8.990;2022-07-12T10:36:17;26.30;95.30
6291;DHT22;3178;48.730;8.990;2022-07-12T10:39:10;26.10;95.20
6291;DHT22;3178;48.730;8.990;2022-07-12T10:41:36;26.00;96.30
6291;DHT22;3178;48.730;8.990;2022-07-12T10:44:05;26.10;97.20
6291;DHT22;3178;48.730;8.990;2022-07-12T10:46:31;26.20;96.00
6291;DHT22;3178;48.730;8.990;2022-07-12T10:49:25;26.20;95.20
6291;DHT22;3178;48.730;8.990;2022-07-12T10:57:40;25.80;95.60
6291;DHT22;3178;48.730;8.990;2022-07-12T11:00:07;25.70;94.40
6291;DHT22;3178;48.730;8.990;2022-07-12T11:02:34;25.50;95.30
6291;DHT22;3178;48.730;8.990;2022-07-12T11:05:00;25.40;96.40
6291;DHT22;3178;48.730;8.990;2022-07-12T11:07:27;25.50;95.20
6291;DHT22;3178;48.730;8.990;2022-07-12T11:09:53;25.60;97.20
6291;DHT22;3178;48.730;8.990;2022-07-12T11:12:19;25.70;96.00
6291;DHT22;3178;48.730;8.990;2022-07-12T11:14:45;25.80;95.40
6291;DHT22;3178;48.730;8.990;2022-07-12T11:17:11;25.90;98.20
6291;DHT22;3178;48.730;8.990;2022-07-12T11:19:37;26.20;96.20
6291;DHT22;3178;48.730;8.990;2022-07-12T11:22:03;26.40;96.80
6291;DHT22;3178;48.730;8.990;2022-07-12T11:24:31;26.40;93.50
6291;DHT22;3178;48.730;8.990;2022-07-12T11:26:57;26.30;95.30
6291;DHT22;3178;48.730;8.990;2022-07-12T11:29:25;26.40;97.00
6291;DHT22;3178;48.730;8.990;2022-07-12T11:32:00;26.60;96.30
6291;DHT22;3178;48.730;8.990;2022-07-12T11:34:26;26.70;96.10
6291;DHT22;3178;48.730;8.990;2022-07-12T11:36:57;26.80;93.00
6291;DHT22;3178;48.730;8.990;2022-07-12T11:39:39;26.80;94.90
6291;DHT22;3178;48.730;8.990;2022-07-12T11:42:05;26.90;97.00
6291;DHT22;3178;48.730;8.990;2022-07-12T11:44:50;27.10;95.80
6291;DHT22;3178;48.730;8.990;2022-07-12T11:47:18;27.20;93.50
6291;DHT22;3178;48.730;8.990;2022-07-12T11:49:52;27.10;93.50
6291;DHT22;3178;48.730;8.990;2022-07-12T11:52:22;27.20;96.40
6291;DHT22;3178;48.730;8.990;2022-07-12T11:54:49;27.20;91.40
6291;DHT22;3178;48.730;8.990;2022-07-12T11:57:19;27.00;91.80
6291;DHT22;3178;48.730;8.990;2022-07-12T11:59:45;27.00;95.20
6291;DHT22;3178;48.730;8.990;2022-07-12T12:02:12;27.00;94.30
6291;DHT22;3178;48.730;8.990;2022-07-12T12:04:48;27.10;92.70
6291;DHT22;3178;48.730;8.990;2022-07-12T12:07:15;27.10;94.90
6291;DHT22;3178;48.730;8.990;2022-07-12T12:10:01;27.20;93.20
6291;DHT22;3178;48.730;8.990;2022-07-12T12:12:34;27.10;95.10
6291;DHT22;3178;48.730;8.990;2022-07-12T12:15:06;27.20;96.00
6291;DHT22;3178;48.730;8.990;2022-07-12T12:17:32;27.30;92.00
6291;DHT22;3178;48.730;8.990;2022-07-12T12:20:07;27.30;94.50
6291;DHT22;3178;48.730;8.990;2022-07-12T12:22:33;27.40;93.10
6291;DHT22;3178;48.730;8.990;2022-07-12T12:25:00;27.30;91.00
6291;DHT22;3178;48.730;8.990;2022-07-12T12:27:26;27.30;92.90
6291;DHT22;3178;48.730;8.990;2022-07-12T12:29:51;27.30;93.90
6291;DHT22;3178;48.730;8.990;2022-07-12T12:32:17;27.30;91.50
6291;DHT22;3178;48.730;8.990;2022-07-12T12:35:09;27.10;91.00
6291;DHT22;3178;48.730;8.990;2022-07-12T12:37:35;27.10;90.50
6291;DHT22;3178;48.730;8.990;2022-07-12T12:40:02;27.00;91.10
6291;DHT22;3178;48.730;8.990;2022-07-12T12:42:28;27.00;94.10
6291;DHT22;3178;48.730;8.990;2022-07-12T12:44:53;27.20;94.90
6291;DHT22;3178;48.730;8.990;2022-07-12T12:47:19;27.30;91.30
6291;DHT22;3178;48.730;8.990;2022-07-12T12:49:57;27.40;93.10
6291;DHT22;3178;48.730;8.990;2022-07-12T12:52:27;27.50;91.50
6291;DHT22;3178;48.730;8.990;2022-07-12T12:54:54;27.50;93.60
6291;DHT22;3178;48.730;8.990;2022-07-12T12:57:20;27.60;93.30
6291;DHT22;3178;48.730;8.990;2022-07-12T12:59:45;27.60;92.40
6291;DHT22;3178;48.730;8.990;2022-07-12T13:02:12;27.60;93.40
6291;DHT22;3178;48.730;8.990;2022-07-12T13:04:38;27.60;91.70
6291;DHT22;3178;48.730;8.990;2022-07-12T13:07:05;27.50;92.20
6291;DHT22;3178;48.730;8.990;2022-07-12T13:09:32;27.70;91.80
6291;DHT22;3178;48.730;8.990;2022-07-12T13:11:58;27.70;92.40
6291;DHT22;3178;48.730;8.990;2022-07-12T13:14:25;27.80;91.50
6291;DHT22;3178;48.730;8.990;2022-07-12T13:16:51;27.80;90.60
6291;DHT22;3178;48.730;8.990;2022-07-12T13:19:16;27.70;90.30
6291;DHT22;3178;48.730;8.990;2022-07-12T13:21:42;27.50;87.20
6291;DHT22;3178;48.730;8.990;2022-07-12T13:24:08;27.40;91.60
6291;DHT22;3178;48.730;8.990;2022-07-12T13:26:34;27.40;92.30
6291;DHT22;3178;48.730;8.990;2022-07-12T13:28:59;27.30;90.50
6291;DHT22;3178;48.730;8.990;2022-07-12T13:31:25;27.10;92.10
6291;DHT22;3178;48.730;8.990;2022-07-12T13:33:52;27.10;92.70
6291;DHT22;3178;48.730;8.990;2022-07-12T13:36:17;27.20;92.30
6291;DHT22;3178;48.730;8.990;2022-07-12T13:38:43;27.20;90.20
6291;DHT22;3178;48.730;8.990;2022-07-12T13:41:08;27.20;92.40
6291;DHT22;3178;48.730;8.990;2022-07-12T13:43:34;27.20;91.90
6291;DHT22;3178;48.730;8.990;2022-07-12T13:46:00;27.20;90.20
6291;DHT22;3178;48.730;8.990;2022-07-12T13:48:25;27.10;91.30
6291;DHT22;3178;48.730;8.990;2022-07-12T13:50:51;27.20;91.80
6291;DHT22;3178;48.730;8.990;2022-07-12T13:53:17;27.20;90.00
6291;DHT22;3178;48.730;8.990;2022-07-12T13:55:43;27.20;91.00
6291;DHT22;3178;48.730;8.990;2022-07-12T13:58:09;27.20;87.20
6291;DHT22;3178;48.730;8.990;2022-07-12T14:00:35;27.20;87.70
6291;DHT22;3178;48.730;8.990;2022-07-12T14:03:01;27.10;88.30
6291;DHT22;3178;48.730;8.990;2022-07-12T14:05:27;27.10;89.10
6291;DHT22;3178;48.730;8.990;2022-07-12T14:07:52;27.10;88.90
6291;DHT22;3178;48.730;8.990;2022-07-12T14:10:19;27.00;88.60
6291;DHT22;3178;48.730;8.990;2022-07-12T14:12:44;26.90;87.60
6291;DHT22;3178;48.730;8.990;2022-07-12T14:15:10;26.80;85.30
6291;DHT22;3178;48.730;8.990;2022-07-12T14:17:40;26.60;89.40
6291;DHT22;3178;48.730;8.990;2022-07-12T14:20:06;26.60;90.00
6291;DHT22;3178;48.730;8.990;2022-07-12T14:22:33;26.60;89.10
6291;DHT22;3178;48.730;8.990;2022-07-12T14:24:58;26.60;90.00
6291;DHT22;3178;48.730;8.990;2022-07-12T14:27:24;26.70;87.20
6291;DHT22;3178;48.730;8.990;2022-07-12T14:29:50;26.70;88.70
6291;DHT22;3178;48.730;8.990;2022-07-12T14:32:15;26.70;88.00
6291;DHT22;3178;48.730;8.990;2022-07-12T14:34:41;26.70;84.10
6291;DHT22;3178;48.730;8.990;2022-07-12T14:37:07;26.60;87.90
6291;DHT22;3178;48.730;8.990;2022-07-12T14:39:32;26.60;86.60
6291;DHT22;3178;48.730;8.990;2022-07-12T14:41:59;26.60;87.00
6291;DHT22;3178;48.730;8.990;2022-07-12T14:44:25;26.50;90.10
6291;DHT22;3178;48.730;8.990;2022-07-12T14:46:52;26.50;90.40
6291;DHT22;3178;48.730;8.990;2022-07-12T14:49:21;26.60;89.50
6291;DHT22;3178;48.730;8.990;2022-07-12T14:51:46;26.60;89.50
6291;DHT22;3178;48.730;8.990;2022-07-12T14:54:12;26.50;91.30
6291;DHT22;3178;48.730;8.990;2022-07-12T14:56:38;26.50;87.90
6291;DHT22;3178;48.730;8.990;2022-07-12T14:59:03;26.50;91.20
6291;DHT22;3178;48.730;8.990;2022-07-12T15:01:29;26.50;90.30
6291;DHT22;3178;48.730;8.990;2022-07-12T15:03:55;26.50;90.00
6291;DHT22;3178;48.730;8.990;2022-07-12T15:06:21;26.50;91.10
6291;DHT22;3178;48.730;8.990;2022-07-12T15:08:46;26.60;90.40
6291;DHT22;3178;48.730;8.990;2022-07-12T15:11:12;26.60;88.00
6291;DHT22;3178;48.730;8.990;2022-07-12T15:13:38;26.50;90.60
6291;DHT22;3178;48.730;8.990;2022-07-12T15:16:04;26.50;91.20
6291;DHT22;3178;48.730;8.990;2022-07-12T15:18:30;26.50;91.10
6291;DHT22;3178;48.730;8.990;2022-07-12T15:20:55;26.50;90.10
6291;DHT22;3178;48.730;8.990;2022-07-12T15:23:21;26.50;91.00
6291;DHT22;3178;48.730;8.990;2022-07-12T15:25:47;26.50;91.10
6291;DHT22;3178;48.730;8.990;2022-07-12T15:28:13;26.40;90.80
6291;DHT22;3178;48.730;8.990;2022-07-12T15:30:38;26.40;89.60
6291;DHT22;3178;48.730;8.990;2022-07-12T15:33:04;26.30;90.70
6291;DHT22;3178;48.730;8.990;2022-07-12T15:35:29;26.30;89.80
6291;DHT22;3178;48.730;8.990;2022-07-12T15:37:55;26.20;90.10
6291;DHT22;3178;48.730;8.990;2022-07-12T15:40:20;26.10;89.80
6291;DHT22;3178;48.730;8.990;2022-07-12T15:42:46;26.10;88.70
6291;DHT22;3178;48.730;8.990;2022-07-12T15:45:12;26.10;86.80
6291;DHT22;3178;48.730;8.990;2022-07-12T15:47:38;26.00;88.50
6291;DHT22;3178;48.730;8.990;2022-07-12T15:50:05;26.00;88.50
6291;DHT22;3178;48.730;8.990;2022-07-12T15:52:31;26.00;89.70
6291;DHT22;3178;48.730;8.990;2022-07-12T15:55:15;25.90;86.50
6291;DHT22;3178;48.730;8.990;2022-07-12T15:57:40;25.80;89.20
6291;DHT22;3178;48.730;8.990;2022-07-12T16:00:07;25.80;90.00
6291;DHT22;3178;48.730;8.990;2022-07-12T16:02:34;25.80;90.60
6291;DHT22;3178;48.730;8.990;2022-07-12T16:04:59;25.70;91.10
6291;DHT22;3178;48.730;8.990;2022-07-12T16:07:26;25.70;90.00
6291;DHT22;3178;48.730;8.990;2022-07-12T16:09:51;25.70;88.90
6291;DHT22;3178;48.730;8.990;2022-07-12T16:12:20;25.70;90.20
6291;DHT22;3178;48.730;8.990;2022-07-12T16:14:46;25.60;86.70
6291;DHT22;3178;48.730;8.990;2022-07-12T16:17:13;25.70;88.40